sensor_id;sensor_type;location;lat;lon;timestamp;P1;durP1;ratioP1;P2;durP2;ratioP2
14584;SDS011;7379;51.506;11.876;2023-06-04T00:02:14;4.97;;;3.70;;
14584;SDS011;7379;51.506;11.876;2023-06-04T00:04:41;6.07;;;3.08;;
14584;SDS011;7379;51.506;11.876;2023-06-04T00:07:08;5.70;;;3.50;;
14584;SDS011;7379;51.506;11.876;2023-06-04T00:09:36;3.97;;;3.03;;
14584;SDS011;7379;51.506;11.876;2023-06-04T00:12:03;4.40;;;3.08;;
14584;SDS011;7379;51.506;11.876;2023-06-04T00:14:30;4.00;;;3.30;;
14584;SDS011;7379;51.506;11.876;2023-06-04T00:16:57;3.85;;;3.17;;
14584;SDS011;7379;51.506;11.876;2023-06-04T00:19:23;4.88;;;3.20;;
14584;SDS011;7379;51.506;11.876;2023-06-04T00:21:50;6.32;;;3.28;;
14584;SDS011;7379;51.506;11.876;2023-06-04T00:24:17;4.32;;;3.00;;
14584;SDS011;7379;51.506;11.876;2023-06-04T00:26:45;3.72;;;3.08;;
14584;SDS011;7379;51.506;11.876;2023-06-04T00:29:12;4.47;;;3.00;;
14584;SDS011;7379;51.506;11.876;2023-06-04T00:31:38;4.45;;;3.08;;
14584;SDS011;7379;51.506;11.876;2023-06-04T00:34:05;3.17;;;2.60;;
14584;SDS011;7379;51.506;11.876;2023-06-04T00:36:32;3.67;;;2.80;;
14584;SDS011;7379;51.506;11.876;2023-06-04T00:38:59;4.03;;;3.00;;
14584;SDS011;7379;51.506;11.876;2023-06-04T00:41:25;3.95;;;2.90;;
14584;SDS011;7379;51.506;11.876;2023-06-04T00:43:54;5.38;;;2.92;;
14584;SDS011;7379;51.506;11.876;2023-06-04T00:46:22;4.03;;;3.10;;
14584;SDS011;7379;51.506;11.876;2023-06-04T00:48:50;3.70;;;3.20;;
14584;SDS011;7379;51.506;11.876;2023-06-04T00:51:17;4.25;;;2.95;;
14584;SDS011;7379;51.506;11.876;2023-06-04T00:53:44;3.42;;;2.72;;
14584;SDS011;7379;51.506;11.876;2023-06-04T00:56:11;4.07;;;2.95;;
14584;SDS011;7379;51.506;11.876;2023-06-04T00:58:38;4.30;;;2.78;;
14584;SDS011;7379;51.506;11.876;2023-06-04T01:01:10;3.70;;;2.92;;
14584;SDS011;7379;51.506;11.876;2023-06-04T01:03:45;3.90;;;3.20;;
14584;SDS011;7379;51.506;11.876;2023-06-04T01:06:17;3.78;;;3.00;;
14584;SDS011;7379;51.506;11.876;2023-06-04T01:08:49;4.13;;;3.10;;
14584;SDS011;7379;51.506;11.876;2023-06-04T01:11:20;4.78;;;3.08;;
14584;SDS011;7379;51.506;11.876;2023-06-04T01:13:57;4.05;;;2.95;;
14584;SDS011;7379;51.506;11.876;2023-06-04T01:16:25;3.53;;;2.88;;
14584;SDS011;7379;51.506;11.876;2023-06-04T01:18:53;5.00;;;3.17;;
14584;SDS011;7379;51.506;11.876;2023-06-04T01:21:24;4.45;;;2.95;;
14584;SDS011;7379;51.506;11.876;2023-06-04T01:23:55;4.82;;;3.20;;
14584;SDS011;7379;51.506;11.876;2023-06-04T01:26:27;3.72;;;3.00;;
14584;SDS011;7379;51.506;11.876;2023-06-04T01:28:55;3.40;;;3.05;;
14584;SDS011;7379;51.506;11.876;2023-06-04T01:31:24;5.03;;;3.38;;
14584;SDS011;7379;51.506;11.876;2023-06-04T01:33:52;5.43;;;3.20;;
14584;SDS011;7379;51.506;11.876;2023-06-04T01:36:19;4.32;;;3.28;;
14584;SDS011;7379;51.506;11.876;2023-06-04T01:38:45;4.93;;;3.63;;
14584;SDS011;7379;51.506;11.876;2023-06-04T01:41:12;4.57;;;3.20;;
14584;SDS011;7379;51.506;11.876;2023-06-04T01:43:39;4.03;;;3.50;;
14584;SDS011;7379;51.506;11.876;2023-06-04T01:46:06;3.75;;;3.33;;
14584;SDS011;7379;51.506;11.876;2023-06-04T01:48:34;4.20;;;3.45;;
14584;SDS011;7379;51.506;11.876;2023-06-04T01:51:01;5.85;;;3.45;;
14584;SDS011;7379;51.506;11.876;2023-06-04T01:53:28;4.85;;;3.65;;
14584;SDS011;7379;51.506;11.876;2023-06-04T01:55:55;5.03;;;3.47;;
14584;SDS011;7379;51.506;11.876;2023-06-04T01:58:23;4.47;;;3.40;;
14584;SDS011;7379;51.506;11.876;2023-06-04T02:00:51;5.32;;;3.40;;
14584;SDS011;7379;51.506;11.876;2023-06-04T02:03:20;3.92;;;3.50;;
14584;SDS011;7379;51.506;11.876;2023-06-04T02:05:48;5.13;;;3.83;;
14584;SDS011;7379;51.506;11.876;2023-06-04T02:08:15;5.28;;;3.90;;
14584;SDS011;7379;51.506;11.876;2023-06-04T02:10:44;4.03;;;3.63;;
14584;SDS011;7379;51.506;11.876;2023-06-04T02:13:11;5.25;;;3.88;;
14584;SDS011;7379;51.506;11.876;2023-06-04T02:15:38;4.97;;;3.80;;
14584;SDS011;7379;51.506;11.876;2023-06-04T02:18:11;5.18;;;3.67;;
14584;SDS011;7379;51.506;11.876;2023-06-04T02:20:41;4.78;;;4.28;;
14584;SDS011;7379;51.506;11.876;2023-06-04T02:23:09;4.80;;;3.42;;
14584;SDS011;7379;51.506;11.876;2023-06-04T02:25:35;6.95;;;4.60;;
14584;SDS011;7379;51.506;11.876;2023-06-04T02:28:02;4.95;;;4.22;;
14584;SDS011;7379;51.506;11.876;2023-06-04T02:30:29;4.72;;;3.90;;
14584;SDS011;7379;51.506;11.876;2023-06-04T02:32:56;4.95;;;4.00;;
14584;SDS011;7379;51.506;11.876;2023-06-04T02:35:25;6.13;;;4.15;;
14584;SDS011;7379;51.506;11.876;2023-06-04T02:37:52;4.30;;;3.90;;
14584;SDS011;7379;51.506;11.876;2023-06-04T02:40:22;5.70;;;3.95;;
14584;SDS011;7379;51.506;11.876;2023-06-04T02:42:49;5.05;;;3.92;;
14584;SDS011;7379;51.506;11.876;2023-06-04T02:45:16;4.72;;;4.00;;
14584;SDS011;7379;51.506;11.876;2023-06-04T02:47:43;5.97;;;4.60;;
14584;SDS011;7379;51.506;11.876;2023-06-04T02:50:10;4.63;;;3.90;;
14584;SDS011;7379;51.506;11.876;2023-06-04T02:52:37;5.63;;;4.50;;
14584;SDS011;7379;51.506;11.876;2023-06-04T02:55:05;5.25;;;4.30;;
14584;SDS011;7379;51.506;11.876;2023-06-04T02:57:35;5.15;;;4.35;;
14584;SDS011;7379;51.506;11.876;2023-06-04T03:00:01;5.13;;;4.30;;
14584;SDS011;7379;51.506;11.876;2023-06-04T03:02:36;5.13;;;4.00;;
14584;SDS011;7379;51.506;11.876;2023-06-04T03:05:03;6.43;;;4.40;;
14584;SDS011;7379;51.506;11.876;2023-06-04T03:07:31;5.63;;;4.05;;
14584;SDS011;7379;51.506;11.876;2023-06-04T03:09:58;5.05;;;4.35;;
14584;SDS011;7379;51.506;11.876;2023-06-04T03:12:25;5.13;;;4.45;;
14584;SDS011;7379;51.506;11.876;2023-06-04T03:14:53;6.03;;;4.28;;
14584;SDS011;7379;51.506;11.876;2023-06-04T03:17:19;6.13;;;4.53;;
14584;SDS011;7379;51.506;11.876;2023-06-04T03:19:46;7.28;;;4.70;;
14584;SDS011;7379;51.506;11.876;2023-06-04T03:22:13;6.88;;;4.38;;
14584;SDS011;7379;51.506;11.876;2023-06-04T03:24:40;5.45;;;4.32;;
14584;SDS011;7379;51.506;11.876;2023-06-04T03:27:08;5.40;;;4.20;;
14584;SDS011;7379;51.506;11.876;2023-06-04T03:29:36;6.10;;;4.68;;
14584;SDS011;7379;51.506;11.876;2023-06-04T03:32:05;6.18;;;4.40;;
14584;SDS011;7379;51.506;11.876;2023-06-04T03:34:33;6.28;;;4.35;;
14584;SDS011;7379;51.506;11.876;2023-06-04T03:36:59;5.00;;;4.15;;
14584;SDS011;7379;51.506;11.876;2023-06-04T03:39:26;6.07;;;4.85;;
14584;SDS011;7379;51.506;11.876;2023-06-04T03:41:53;5.90;;;4.50;;
14584;SDS011;7379;51.506;11.876;2023-06-04T03:44:21;4.72;;;4.28;;
14584;SDS011;7379;51.506;11.876;2023-06-04T03:46:48;6.10;;;4.10;;
14584;SDS011;7379;51.506;11.876;2023-06-04T03:49:16;6.65;;;4.65;;
14584;SDS011;7379;51.506;11.876;2023-06-04T03:51:44;4.70;;;4.25;;
14584;SDS011;7379;51.506;11.876;2023-06-04T03:54:11;4.63;;;4.22;;
14584;SDS011;7379;51.506;11.876;2023-06-04T03:56:41;5.47;;;4.43;;
14584;SDS011;7379;51.506;11.876;2023-06-04T03:59:08;4.93;;;4.43;;
14584;SDS011;7379;51.506;11.876;2023-06-04T04:01:35;6.05;;;4.32;;
14584;SDS011;7379;51.506;11.876;2023-06-04T04:04:02;6.50;;;4.35;;
14584;SDS011;7379;51.506;11.876;2023-06-04T04:06:31;6.47;;;4.65;;
14584;SDS011;7379;51.506;11.876;2023-06-04T04:08:58;5.18;;;4.47;;
14584;SDS011;7379;51.506;11.876;2023-06-04T04:11:25;5.05;;;4.40;;
14584;SDS011;7379;51.506;11.876;2023-06-04T04:13:51;5.30;;;4.25;;
14584;SDS011;7379;51.506;11.876;2023-06-04T04:16:18;4.90;;;4.20;;
14584;SDS011;7379;51.506;11.876;2023-06-04T04:18:45;5.10;;;4.32;;
14584;SDS011;7379;51.506;11.876;2023-06-04T04:21:11;5.53;;;4.30;;
14584;SDS011;7379;51.506;11.876;2023-06-04T04:23:39;5.65;;;4.55;;
14584;SDS011;7379;51.506;11.876;2023-06-04T04:26:07;5.97;;;4.07;;
14584;SDS011;7379;51.506;11.876;2023-06-04T04:28:35;6.18;;;4.65;;
14584;SDS011;7379;51.506;11.876;2023-06-04T04:31:02;4.55;;;4.03;;
14584;SDS011;7379;51.506;11.876;2023-06-04T04:33:28;5.00;;;4.32;;
14584;SDS011;7379;51.506;11.876;2023-06-04T04:35:57;4.65;;;4.22;;
14584;SDS011;7379;51.506;11.876;2023-06-04T04:38:25;5.60;;;4.22;;
14584;SDS011;7379;51.506;11.876;2023-06-04T04:40:54;5.85;;;4.15;;
14584;SDS011;7379;51.506;11.876;2023-06-04T04:43:31;5.72;;;4.45;;
14584;SDS011;7379;51.506;11.876;2023-06-04T04:45:59;5.90;;;4.78;;
14584;SDS011;7379;51.506;11.876;2023-06-04T04:48:26;5.78;;;4.53;;
14584;SDS011;7379;51.506;11.876;2023-06-04T04:50:53;5.68;;;4.00;;
14584;SDS011;7379;51.506;11.876;2023-06-04T04:53:20;5.90;;;4.32;;
14584;SDS011;7379;51.506;11.876;2023-06-04T04:55:46;6.25;;;4.20;;
14584;SDS011;7379;51.506;11.876;2023-06-04T04:58:15;5.05;;;3.90;;
14584;SDS011;7379;51.506;11.876;2023-06-04T05:00:41;5.03;;;4.43;;
14584;SDS011;7379;51.506;11.876;2023-06-04T05:03:08;5.38;;;4.18;;
14584;SDS011;7379;51.506;11.876;2023-06-04T05:05:35;4.43;;;4.03;;
14584;SDS011;7379;51.506;11.876;2023-06-04T05:08:02;5.00;;;4.47;;
14584;SDS011;7379;51.506;11.876;2023-06-04T05:10:29;5.32;;;4.35;;
14584;SDS011;7379;51.506;11.876;2023-06-04T05:12:56;5.32;;;3.88;;
14584;SDS011;7379;51.506;11.876;2023-06-04T05:15:26;5.68;;;3.95;;
14584;SDS011;7379;51.506;11.876;2023-06-04T05:17:53;4.53;;;3.97;;
14584;SDS011;7379;51.506;11.876;2023-06-04T05:20:21;4.57;;;4.10;;
14584;SDS011;7379;51.506;11.876;2023-06-04T05:22:48;4.60;;;3.90;;
14584;SDS011;7379;51.506;11.876;2023-06-04T05:25:16;4.60;;;4.07;;
14584;SDS011;7379;51.506;11.876;2023-06-04T05:27:43;5.00;;;3.90;;
14584;SDS011;7379;51.506;11.876;2023-06-04T05:30:10;5.93;;;4.10;;
14584;SDS011;7379;51.506;11.876;2023-06-04T05:32:39;6.10;;;3.95;;
14584;SDS011;7379;51.506;11.876;2023-06-04T05:35:07;4.68;;;4.07;;
14584;SDS011;7379;51.506;11.876;2023-06-04T05:37:35;5.00;;;4.10;;
14584;SDS011;7379;51.506;11.876;2023-06-04T05:40:03;5.32;;;4.18;;
14584;SDS011;7379;51.506;11.876;2023-06-04T05:42:32;4.22;;;3.83;;
14584;SDS011;7379;51.506;11.876;2023-06-04T05:44:58;4.68;;;3.78;;
14584;SDS011;7379;51.506;11.876;2023-06-04T05:47:26;4.75;;;4.07;;
14584;SDS011;7379;51.506;11.876;2023-06-04T05:49:56;6.30;;;3.97;;
14584;SDS011;7379;51.506;11.876;2023-06-04T05:52:23;3.83;;;3.50;;
14584;SDS011;7379;51.506;11.876;2023-06-04T05:54:50;5.35;;;3.70;;
14584;SDS011;7379;51.506;11.876;2023-06-04T05:57:16;4.25;;;3.80;;
14584;SDS011;7379;51.506;11.876;2023-06-04T05:59:43;5.18;;;3.90;;
14584;SDS011;7379;51.506;11.876;2023-06-04T06:02:10;4.38;;;3.60;;
14584;SDS011;7379;51.506;11.876;2023-06-04T06:04:37;5.00;;;4.00;;
14584;SDS011;7379;51.506;11.876;2023-06-04T06:07:05;4.20;;;3.65;;
14584;SDS011;7379;51.506;11.876;2023-06-04T06:09:32;5.13;;;3.63;;
14584;SDS011;7379;51.506;11.876;2023-06-04T06:12:00;5.22;;;3.58;;
14584;SDS011;7379;51.506;11.876;2023-06-04T06:14:27;4.13;;;3.40;;
14584;SDS011;7379;51.506;11.876;2023-06-04T06:16:54;4.40;;;3.50;;
14584;SDS011;7379;51.506;11.876;2023-06-04T06:19:21;5.00;;;3.70;;
14584;SDS011;7379;51.506;11.876;2023-06-04T06:21:48;4.10;;;3.42;;
14584;SDS011;7379;51.506;11.876;2023-06-04T06:24:16;4.72;;;3.50;;
14584;SDS011;7379;51.506;11.876;2023-06-04T06:26:42;4.82;;;3.22;;
14584;SDS011;7379;51.506;11.876;2023-06-04T06:29:09;3.45;;;2.95;;
14584;SDS011;7379;51.506;11.876;2023-06-04T06:31:36;3.95;;;3.03;;
14584;SDS011;7379;51.506;11.876;2023-06-04T06:34:02;4.43;;;3.10;;
14584;SDS011;7379;51.506;11.876;2023-06-04T06:36:29;3.78;;;2.95;;
14584;SDS011;7379;51.506;11.876;2023-06-04T06:38:57;3.55;;;3.03;;
14584;SDS011;7379;51.506;11.876;2023-06-04T06:41:26;4.78;;;3.10;;
14584;SDS011;7379;51.506;11.876;2023-06-04T06:43:52;3.30;;;3.00;;
14584;SDS011;7379;51.506;11.876;2023-06-04T06:46:19;4.32;;;3.08;;
14584;SDS011;7379;51.506;11.876;2023-06-04T06:48:46;4.43;;;3.00;;
14584;SDS011;7379;51.506;11.876;2023-06-04T06:51:13;4.60;;;3.17;;
14584;SDS011;7379;51.506;11.876;2023-06-04T06:53:40;3.42;;;3.00;;
14584;SDS011;7379;51.506;11.876;2023-06-04T06:56:07;3.40;;;2.88;;
14584;SDS011;7379;51.506;11.876;2023-06-04T06:58:35;4.38;;;3.22;;
14584;SDS011;7379;51.506;11.876;2023-06-04T07:01:02;3.53;;;2.80;;
14584;SDS011;7379;51.506;11.876;2023-06-04T07:03:29;3.20;;;2.90;;
14584;SDS011;7379;51.506;11.876;2023-06-04T07:05:56;3.13;;;2.80;;
14584;SDS011;7379;51.506;11.876;2023-06-04T07:08:22;2.67;;;2.47;;
14584;SDS011;7379;51.506;11.876;2023-06-04T07:10:49;4.57;;;2.80;;
14584;SDS011;7379;51.506;11.876;2023-06-04T07:13:16;4.03;;;2.78;;
14584;SDS011;7379;51.506;11.876;2023-06-04T07:15:44;3.85;;;2.80;;
14584;SDS011;7379;51.506;11.876;2023-06-04T07:18:11;4.68;;;2.67;;
14584;SDS011;7379;51.506;11.876;2023-06-04T07:20:37;3.50;;;2.58;;
14584;SDS011;7379;51.506;11.876;2023-06-04T07:23:04;3.00;;;2.42;;
14584;SDS011;7379;51.506;11.876;2023-06-04T07:25:32;3.85;;;2.50;;
14584;SDS011;7379;51.506;11.876;2023-06-04T07:27:58;3.22;;;2.22;;
14584;SDS011;7379;51.506;11.876;2023-06-04T07:30:28;4.00;;;2.50;;
14584;SDS011;7379;51.506;11.876;2023-06-04T07:32:57;2.80;;;2.33;;
14584;SDS011;7379;51.506;11.876;2023-06-04T07:35:24;4.45;;;2.90;;
14584;SDS011;7379;51.506;11.876;2023-06-04T07:37:51;3.25;;;2.30;;
14584;SDS011;7379;51.506;11.876;2023-06-04T07:40:18;3.08;;;2.38;;
14584;SDS011;7379;51.506;11.876;2023-06-04T07:42:45;2.40;;;2.20;;
14584;SDS011;7379;51.506;11.876;2023-06-04T07:45:12;4.20;;;2.50;;
14584;SDS011;7379;51.506;11.876;2023-06-04T07:47:39;5.13;;;2.55;;
14584;SDS011;7379;51.506;11.876;2023-06-04T07:50:08;2.80;;;2.33;;
14584;SDS011;7379;51.506;11.876;2023-06-04T07:52:35;3.70;;;2.25;;
14584;SDS011;7379;51.506;11.876;2023-06-04T07:55:01;4.15;;;2.17;;
14584;SDS011;7379;51.506;11.876;2023-06-04T07:57:28;3.28;;;1.90;;
14584;SDS011;7379;51.506;11.876;2023-06-04T07:59:55;2.08;;;1.85;;
14584;SDS011;7379;51.506;11.876;2023-06-04T08:02:22;2.30;;;2.00;;
14584;SDS011;7379;51.506;11.876;2023-06-04T08:04:49;2.90;;;1.77;;
14584;SDS011;7379;51.506;11.876;2023-06-04T08:07:17;2.05;;;1.85;;
14584;SDS011;7379;51.506;11.876;2023-06-04T08:09:44;2.55;;;1.92;;
14584;SDS011;7379;51.506;11.876;2023-06-04T08:12:10;2.20;;;1.70;;
14584;SDS011;7379;51.506;11.876;2023-06-04T08:14:37;3.03;;;1.88;;
14584;SDS011;7379;51.506;11.876;2023-06-04T08:17:04;3.03;;;2.00;;
14584;SDS011;7379;51.506;11.876;2023-06-04T08:19:31;1.95;;;1.73;;
14584;SDS011;7379;51.506;11.876;2023-06-04T08:21:57;2.70;;;2.00;;
14584;SDS011;7379;51.506;11.876;2023-06-04T08:24:26;2.40;;;1.83;;
14584;SDS011;7379;51.506;11.876;2023-06-04T08:26:53;1.92;;;1.73;;
14584;SDS011;7379;51.506;11.876;2023-06-04T08:29:20;5.32;;;2.10;;
14584;SDS011;7379;51.506;11.876;2023-06-04T08:31:46;2.53;;;2.00;;
14584;SDS011;7379;51.506;11.876;2023-06-04T08:34:13;3.63;;;1.67;;
14584;SDS011;7379;51.506;11.876;2023-06-04T08:36:40;2.55;;;1.85;;
14584;SDS011;7379;51.506;11.876;2023-06-04T08:39:07;3.22;;;1.77;;
14584;SDS011;7379;51.506;11.876;2023-06-04T08:41:41;3.88;;;2.10;;
14584;SDS011;7379;51.506;11.876;2023-06-04T08:44:09;3.75;;;2.03;;
14584;SDS011;7379;51.506;11.876;2023-06-04T08:46:37;2.40;;;1.67;;
14584;SDS011;7379;51.506;11.876;2023-06-04T08:49:05;3.13;;;1.90;;
14584;SDS011;7379;51.506;11.876;2023-06-04T08:51:34;3.60;;;1.80;;
14584;SDS011;7379;51.506;11.876;2023-06-04T08:54:03;1.75;;;1.60;;
14584;SDS011;7379;51.506;11.876;2023-06-04T08:56:30;1.90;;;1.70;;
14584;SDS011;7379;51.506;11.876;2023-06-04T08:59:01;5.28;;;1.90;;
14584;SDS011;7379;51.506;11.876;2023-06-04T09:01:29;5.90;;;1.98;;
14584;SDS011;7379;51.506;11.876;2023-06-04T09:03:57;8.50;;;2.10;;
14584;SDS011;7379;51.506;11.876;2023-06-04T09:06:25;9.88;;;2.03;;
14584;SDS011;7379;51.506;11.876;2023-06-04T09:08:52;2.85;;;1.88;;
14584;SDS011;7379;51.506;11.876;2023-06-04T09:11:22;3.28;;;1.83;;
14584;SDS011;7379;51.506;11.876;2023-06-04T09:13:52;2.40;;;2.00;;
14584;SDS011;7379;51.506;11.876;2023-06-04T09:16:21;2.88;;;1.58;;
14584;SDS011;7379;51.506;11.876;2023-06-04T09:18:47;2.22;;;1.85;;
14584;SDS011;7379;51.506;11.876;2023-06-04T09:21:14;2.15;;;1.85;;
14584;SDS011;7379;51.506;11.876;2023-06-04T09:23:43;2.33;;;1.77;;
14584;SDS011;7379;51.506;11.876;2023-06-04T09:26:10;2.42;;;1.65;;
14584;SDS011;7379;51.506;11.876;2023-06-04T09:28:39;2.65;;;1.90;;
14584;SDS011;7379;51.506;11.876;2023-06-04T09:31:07;3.03;;;1.90;;
14584;SDS011;7379;51.506;11.876;2023-06-04T09:33:42;2.83;;;1.67;;
14584;SDS011;7379;51.506;11.876;2023-06-04T09:36:10;3.72;;;1.85;;
14584;SDS011;7379;51.506;11.876;2023-06-04T09:38:38;3.17;;;1.60;;
14584;SDS011;7379;51.506;11.876;2023-06-04T09:41:10;4.75;;;1.80;;
14584;SDS011;7379;51.506;11.876;2023-06-04T09:43:37;2.15;;;1.60;;
14584;SDS011;7379;51.506;11.876;2023-06-04T09:46:11;1.67;;;1.58;;
14584;SDS011;7379;51.506;11.876;2023-06-04T09:48:38;2.75;;;1.73;;
14584;SDS011;7379;51.506;11.876;2023-06-04T09:51:07;4.07;;;1.77;;
14584;SDS011;7379;51.506;11.876;2023-06-04T09:53:35;2.50;;;1.65;;
14584;SDS011;7379;51.506;11.876;2023-06-04T09:56:03;2.00;;;1.70;;
14584;SDS011;7379;51.506;11.876;2023-06-04T09:58:31;2.85;;;1.70;;
14584;SDS011;7379;51.506;11.876;2023-06-04T10:00:59;2.35;;;1.75;;
14584;SDS011;7379;51.506;11.876;2023-06-04T10:03:29;2.20;;;1.90;;
14584;SDS011;7379;51.506;11.876;2023-06-04T10:05:57;1.95;;;1.63;;
14584;SDS011;7379;51.506;11.876;2023-06-04T10:08:27;2.08;;;1.77;;
14584;SDS011;7379;51.506;11.876;2023-06-04T10:10:58;2.28;;;1.77;;
14584;SDS011;7379;51.506;11.876;2023-06-04T10:13:27;3.45;;;1.83;;
14584;SDS011;7379;51.506;11.876;2023-06-04T10:15:56;2.97;;;1.77;;
14584;SDS011;7379;51.506;11.876;2023-06-04T10:18:24;2.65;;;1.60;;
14584;SDS011;7379;51.506;11.876;2023-06-04T10:20:54;2.22;;;1.70;;
14584;SDS011;7379;51.506;11.876;2023-06-04T10:23:22;1.85;;;1.67;;
14584;SDS011;7379;51.506;11.876;2023-06-04T10:25:51;3.63;;;1.67;;
14584;SDS011;7379;51.506;11.876;2023-06-04T10:28:19;2.17;;;1.75;;
14584;SDS011;7379;51.506;11.876;2023-06-04T10:30:46;3.53;;;1.70;;
14584;SDS011;7379;51.506;11.876;2023-06-04T10:33:15;2.58;;;1.60;;
14584;SDS011;7379;51.506;11.876;2023-06-04T10:35:43;3.13;;;1.73;;
14584;SDS011;7379;51.506;11.876;2023-06-04T10:38:10;1.95;;;1.50;;
14584;SDS011;7379;51.506;11.876;2023-06-04T10:40:38;2.92;;;1.83;;
14584;SDS011;7379;51.506;11.876;2023-06-04T10:43:07;3.25;;;1.67;;
14584;SDS011;7379;51.506;11.876;2023-06-04T10:45:35;2.13;;;1.70;;
14584;SDS011;7379;51.506;11.876;2023-06-04T10:48:02;3.25;;;1.80;;
14584;SDS011;7379;51.506;11.876;2023-06-04T10:50:31;1.85;;;1.60;;
14584;SDS011;7379;51.506;11.876;2023-06-04T10:52:58;2.15;;;1.65;;
14584;SDS011;7379;51.506;11.876;2023-06-04T10:55:28;2.10;;;1.60;;
14584;SDS011;7379;51.506;11.876;2023-06-04T10:57:55;2.67;;;1.73;;
14584;SDS011;7379;51.506;11.876;2023-06-04T11:00:35;2.55;;;1.48;;
14584;SDS011;7379;51.506;11.876;2023-06-04T11:03:02;2.08;;;1.60;;
14584;SDS011;7379;51.506;11.876;2023-06-04T11:05:34;1.95;;;1.60;;
14584;SDS011;7379;51.506;11.876;2023-06-04T11:08:02;1.95;;;1.55;;
14584;SDS011;7379;51.506;11.876;2023-06-04T11:10:34;2.53;;;1.50;;
14584;SDS011;7379;51.506;11.876;2023-06-04T11:13:01;2.08;;;1.60;;
14584;SDS011;7379;51.506;11.876;2023-06-04T11:15:38;2.13;;;1.73;;
14584;SDS011;7379;51.506;11.876;2023-06-04T11:18:06;3.03;;;1.60;;
14584;SDS011;7379;51.506;11.876;2023-06-04T11:20:32;2.20;;;1.90;;
14584;SDS011;7379;51.506;11.876;2023-06-04T11:22:59;1.42;;;1.25;;
14584;SDS011;7379;51.506;11.876;2023-06-04T11:25:28;2.53;;;1.77;;
14584;SDS011;7379;51.506;11.876;2023-06-04T11:27:58;1.98;;;1.77;;
14584;SDS011;7379;51.506;11.876;2023-06-04T11:30:26;2.05;;;1.70;;
14584;SDS011;7379;51.506;11.876;2023-06-04T11:33:01;4.38;;;1.90;;
14584;SDS011;7379;51.506;11.876;2023-06-04T11:35:28;2.15;;;1.60;;
14584;SDS011;7379;51.506;11.876;2023-06-04T11:37:56;2.47;;;1.70;;
14584;SDS011;7379;51.506;11.876;2023-06-04T11:40:24;2.35;;;1.60;;
14584;SDS011;7379;51.506;11.876;2023-06-04T11:42:51;1.85;;;1.65;;
14584;SDS011;7379;51.506;11.876;2023-06-04T11:45:19;1.92;;;1.73;;
14584;SDS011;7379;51.506;11.876;2023-06-04T11:47:47;2.53;;;1.70;;
14584;SDS011;7379;51.506;11.876;2023-06-04T11:50:16;2.08;;;1.60;;
14584;SDS011;7379;51.506;11.876;2023-06-04T11:52:43;1.52;;;1.38;;
14584;SDS011;7379;51.506;11.876;2023-06-04T11:55:10;1.77;;;1.67;;
14584;SDS011;7379;51.506;11.876;2023-06-04T11:57:38;1.98;;;1.40;;
14584;SDS011;7379;51.506;11.876;2023-06-04T12:00:06;2.47;;;2.08;;
14584;SDS011;7379;51.506;11.876;2023-06-04T12:02:35;2.47;;;1.73;;
14584;SDS011;7379;51.506;11.876;2023-06-04T12:05:12;2.67;;;1.70;;
14584;SDS011;7379;51.506;11.876;2023-06-04T12:07:40;1.90;;;1.70;;
14584;SDS011;7379;51.506;11.876;2023-06-04T12:10:07;2.25;;;1.60;;
14584;SDS011;7379;51.506;11.876;2023-06-04T12:12:35;2.15;;;1.88;;
14584;SDS011;7379;51.506;11.876;2023-06-04T12:15:01;2.30;;;1.90;;
14584;SDS011;7379;51.506;11.876;2023-06-04T12:17:30;3.35;;;1.60;;
14584;SDS011;7379;51.506;11.876;2023-06-04T12:19:57;3.42;;;1.80;;
14584;SDS011;7379;51.506;11.876;2023-06-04T12:22:24;2.22;;;1.85;;
14584;SDS011;7379;51.506;11.876;2023-06-04T12:24:53;2.97;;;1.70;;
14584;SDS011;7379;51.506;11.876;2023-06-04T12:27:21;3.22;;;1.70;;
14584;SDS011;7379;51.506;11.876;2023-06-04T12:29:55;3.10;;;1.80;;
14584;SDS011;7379;51.506;11.876;2023-06-04T12:32:23;2.50;;;1.80;;
14584;SDS011;7379;51.506;11.876;2023-06-04T12:34:50;3.28;;;1.80;;
14584;SDS011;7379;51.506;11.876;2023-06-04T12:37:17;2.10;;;1.70;;
14584;SDS011;7379;51.506;11.876;2023-06-04T12:39:44;2.35;;;1.70;;
14584;SDS011;7379;51.506;11.876;2023-06-04T12:42:12;1.80;;;1.42;;
14584;SDS011;7379;51.506;11.876;2023-06-04T12:44:39;2.22;;;1.60;;
14584;SDS011;7379;51.506;11.876;2023-06-04T12:47:06;1.90;;;1.60;;
14584;SDS011;7379;51.506;11.876;2023-06-04T12:49:33;2.28;;;1.63;;
14584;SDS011;7379;51.506;11.876;2023-06-04T12:52:00;2.70;;;1.90;;
14584;SDS011;7379;51.506;11.876;2023-06-04T12:54:27;1.85;;;1.63;;
14584;SDS011;7379;51.506;11.876;2023-06-04T12:56:53;1.92;;;1.70;;
14584;SDS011;7379;51.506;11.876;2023-06-04T12:59:23;2.17;;;1.70;;
14584;SDS011;7379;51.506;11.876;2023-06-04T13:01:50;2.40;;;1.90;;
14584;SDS011;7379;51.506;11.876;2023-06-04T13:04:17;2.13;;;1.50;;
14584;SDS011;7379;51.506;11.876;2023-06-04T13:06:43;2.20;;;1.80;;
14584;SDS011;7379;51.506;11.876;2023-06-04T13:09:11;3.20;;;1.80;;
14584;SDS011;7379;51.506;11.876;2023-06-04T13:11:39;1.88;;;1.55;;
14584;SDS011;7379;51.506;11.876;2023-06-04T13:14:07;2.70;;;1.90;;
14584;SDS011;7379;51.506;11.876;2023-06-04T13:16:37;2.35;;;1.80;;
14584;SDS011;7379;51.506;11.876;2023-06-04T13:19:05;3.15;;;1.88;;
14584;SDS011;7379;51.506;11.876;2023-06-04T13:21:31;2.92;;;1.65;;
14584;SDS011;7379;51.506;11.876;2023-06-04T13:23:58;1.95;;;1.70;;
14584;SDS011;7379;51.506;11.876;2023-06-04T13:26:25;2.30;;;1.77;;
14584;SDS011;7379;51.506;11.876;2023-06-04T13:28:52;2.90;;;1.58;;
14584;SDS011;7379;51.506;11.876;2023-06-04T13:31:18;2.35;;;1.67;;
14584;SDS011;7379;51.506;11.876;2023-06-04T13:33:46;2.28;;;1.80;;
14584;SDS011;7379;51.506;11.876;2023-06-04T13:36:13;2.10;;;1.90;;
14584;SDS011;7379;51.506;11.876;2023-06-04T13:38:40;1.90;;;1.70;;
14584;SDS011;7379;51.506;11.876;2023-06-04T13:41:08;2.22;;;1.55;;
14584;SDS011;7379;51.506;11.876;2023-06-04T13:43:35;2.67;;;1.90;;
14584;SDS011;7379;51.506;11.876;2023-06-04T13:46:01;2.88;;;1.95;;
14584;SDS011;7379;51.506;11.876;2023-06-04T13:48:28;2.42;;;1.63;;
14584;SDS011;7379;51.506;11.876;2023-06-04T13:50:56;1.88;;;1.65;;
14584;SDS011;7379;51.506;11.876;2023-06-04T13:53:23;3.78;;;1.65;;
14584;SDS011;7379;51.506;11.876;2023-06-04T13:55:49;3.80;;;1.95;;
14584;SDS011;7379;51.506;11.876;2023-06-04T13:58:22;2.28;;;2.03;;
14584;SDS011;7379;51.506;11.876;2023-06-04T14:00:49;2.63;;;1.70;;
14584;SDS011;7379;51.506;11.876;2023-06-04T14:03:16;2.35;;;1.90;;
14584;SDS011;7379;51.506;11.876;2023-06-04T14:05:42;3.05;;;1.80;;
14584;SDS011;7379;51.506;11.876;2023-06-04T14:08:11;3.58;;;1.90;;
14584;SDS011;7379;51.506;11.876;2023-06-04T14:10:38;2.75;;;1.77;;
14584;SDS011;7379;51.506;11.876;2023-06-04T14:13:06;1.80;;;1.58;;
14584;SDS011;7379;51.506;11.876;2023-06-04T14:15:33;2.92;;;1.80;;
14584;SDS011;7379;51.506;11.876;2023-06-04T14:17:59;4.10;;;1.88;;
14584;SDS011;7379;51.506;11.876;2023-06-04T14:20:27;3.33;;;1.90;;
14584;SDS011;7379;51.506;11.876;2023-06-04T14:22:53;5.93;;;2.00;;
14584;SDS011;7379;51.506;11.876;2023-06-04T14:25:21;2.38;;;1.70;;
14584;SDS011;7379;51.506;11.876;2023-06-04T14:27:48;3.55;;;1.80;;
14584;SDS011;7379;51.506;11.876;2023-06-04T14:30:15;2.00;;;1.70;;
14584;SDS011;7379;51.506;11.876;2023-06-04T14:32:42;1.90;;;1.65;;
14584;SDS011;7379;51.506;11.876;2023-06-04T14:35:09;2.28;;;1.55;;
14584;SDS011;7379;51.506;11.876;2023-06-04T14:37:36;1.85;;;1.70;;
14584;SDS011;7379;51.506;11.876;2023-06-04T14:40:03;2.60;;;1.90;;
14584;SDS011;7379;51.506;11.876;2023-06-04T14:42:31;7.53;;;2.25;;
14584;SDS011;7379;51.506;11.876;2023-06-04T14:44:58;3.05;;;1.83;;
14584;SDS011;7379;51.506;11.876;2023-06-04T14:47:25;4.07;;;1.85;;
14584;SDS011;7379;51.506;11.876;2023-06-04T14:49:51;4.35;;;1.90;;
14584;SDS011;7379;51.506;11.876;2023-06-04T14:52:18;2.15;;;1.90;;